Observation data for Roaring Springs on 08/03/2020      Previous  Date  Next       Current Mesonet Observations  Soil Data  Daily Summary Page  Observations in Plain Language
KRRS 030500Z 06004KT 22/16 A3009 RMK A01 T02230162  RH  072%=      5-min Rain = 0
KRRS 030505Z 06005KT 22/16 A3009 RMK A01 T02230163  RH  072%=      5-min Rain = 0
KRRS 030510Z 06005KT 22/16 A301 RMK A01 T02220164  RH  073%=      5-min Rain = 0
KRRS 030515Z 05004KT 22/16 A301 RMK A01 T02220164  RH  073%=      5-min Rain = 0
KRRS 030520Z 03004KT 22/16 A3011 RMK A01 T02230164  RH  073%=      5-min Rain = 0
KRRS 030525Z 01004KT 22/16 A3011 RMK A01 T02240164  RH  073%=      5-min Rain = 0
KRRS 030530Z 34004KT 23/17 A3012 RMK A01 T02250165  RH  072%=      5-min Rain = 0
KRRS 030535Z 33004KT 23/16 A3013 RMK A01 T02260163  RH  071%=      5-min Rain = 0
KRRS 030540Z 31002KT 23/16 A3013 RMK A01 T02280162  RH  070%=      5-min Rain = 0
KRRS 030545Z 28004KT 23/17 A3014 RMK A01 T02280168  RH  072%=      5-min Rain = 0
KRRS 030550Z 28007KT 22/17 A3015 RMK A01 T02240169  RH  075%=      5-min Rain = 0
KRRS 030555Z 27006KT 23/17 A3016 RMK A01 T02260165  RH  072%=      5-min Rain = 0
KRRS 030600Z 25006KT 23/17 A3016 RMK A01 T02260166  RH  073%=      5-min Rain = 0
KRRS 030605Z 27006KT 23/16 A3017 RMK A01 T02260164  RH  071%=      5-min Rain = 0
KRRS 030610Z 27007KT 23/16 A3017 RMK A01 T02300162  RH  069%=      5-min Rain = 0
KRRS 030615Z 27007KT 23/16 A3017 RMK A01 T02290163  RH  069%=      5-min Rain = 0
KRRS 030620Z 28008KT 23/16 A3017 RMK A01 T02290164  RH  070%=      5-min Rain = 0
KRRS 030625Z 29008KT 23/17 A3017 RMK A01 T02270167  RH  072%=      5-min Rain = 0
KRRS 030630Z 30006KT 23/17 A3017 RMK A01 T02270167  RH  073%=      5-min Rain = 0
KRRS 030635Z 29003KT 23/17 A3017 RMK A01 T02270168  RH  073%=      5-min Rain = 0
KRRS 030640Z 29004KT 23/17 A3017 RMK A01 T02270167  RH  072%=      5-min Rain = 0
KRRS 030645Z 29006KT 23/17 A3017 RMK A01 T02270167  RH  072%=      5-min Rain = 0
KRRS 030650Z 29005KT 23/17 A3017 RMK A01 T02300165  RH  070%=      5-min Rain = 0
KRRS 030655Z 28006KT 23/17 A3017 RMK A01 T02310166  RH  070%=      5-min Rain = 0
KRRS 030700Z 29007KT 23/17 A3018 RMK A01 T02300169  RH  072%=      5-min Rain = 0
KRRS 030705Z 30007KT 23/17 A3019 RMK A01 T02280170  RH  074%=      5-min Rain = 0
KRRS 030710Z 29008KT 23/17 A3018 RMK A01 T02270167  RH  072%=      5-min Rain = 0
KRRS 030715Z 28007KT 23/17 A3018 RMK A01 T02270165  RH  071%=      5-min Rain = 0
KRRS 030720Z 28006KT 23/17 A3018 RMK A01 T02270165  RH  071%=      5-min Rain = 0
KRRS 030725Z 29007KT 23/16 A3018 RMK A01 T02260164  RH  071%=      5-min Rain = 0
KRRS 030730Z 27006KT 23/17 A3018 RMK A01 T02260165  RH  072%=      5-min Rain = 0
KRRS 030735Z 26006KT 22/17 A3018 RMK A01 T02240166  RH  073%=      5-min Rain = 0
KRRS 030740Z 26006KT 22/17 A3017 RMK A01 T02230166  RH  074%=      5-min Rain = 0
KRRS 030745Z 26006KT 22/17 A3017 RMK A01 T02220166  RH  074%=      5-min Rain = 0
KRRS 030750Z 25006KT 22/17 A3017 RMK A01 T02210166  RH  075%=      5-min Rain = 0
KRRS 030755Z 24004KT 22/17 A3017 RMK A01 T02200167  RH  076%=      5-min Rain = 0
KRRS 030800Z 22003KT 22/17 A3017 RMK A01 T02180167  RH  077%=      5-min Rain = 0
KRRS 030805Z 21005KT 22/17 A3017 RMK A01 T02160167  RH  077%=      5-min Rain = 0
KRRS 030810Z 22006KT 22/17 A3017 RMK A01 T02160167  RH  078%=      5-min Rain = 0
KRRS 030815Z 22006KT 22/17 A3017 RMK A01 T02150167  RH  078%=      5-min Rain = 0
KRRS 030820Z 22006KT 21/17 A3017 RMK A01 T02130168  RH  079%=      5-min Rain = 0
KRRS 030825Z 22006KT 21/17 A3017 RMK A01 T02120168  RH  080%=      5-min Rain = 0
KRRS 030830Z 22006KT 22/17 A3017 RMK A01 T02150168  RH  078%=      5-min Rain = 0
KRRS 030835Z 22007KT 22/17 A3017 RMK A01 T02160168  RH  078%=      5-min Rain = 0
KRRS 030840Z 22007KT 21/17 A3017 RMK A01 T02140169  RH  079%=      5-min Rain = 0
KRRS 030845Z 22006KT 21/17 A3017 RMK A01 T02140168  RH  079%=      5-min Rain = 0
KRRS 030850Z 23005KT 21/17 A3017 RMK A01 T02130168  RH  079%=      5-min Rain = 0
KRRS 030855Z 22004KT 21/17 A3016 RMK A01 T02120168  RH  080%=      5-min Rain = 0
KRRS 030900Z 22003KT 21/17 A3016 RMK A01 T02120168  RH  080%=      5-min Rain = 0
KRRS 030905Z 23003KT 21/17 A3016 RMK A01 T02110168  RH  080%=      5-min Rain = 0
KRRS 030910Z 23003KT 21/17 A3016 RMK A01 T02110168  RH  080%=      5-min Rain = 0
KRRS 030915Z 23004KT 21/17 A3015 RMK A01 T02100168  RH  081%=      5-min Rain = 0
KRRS 030920Z 25002KT 21/17 A3015 RMK A01 T02080168  RH  082%=      5-min Rain = 0
KRRS 030925Z 25002KT 21/17 A3015 RMK A01 T02070168  RH  082%=      5-min Rain = 0
KRRS 030930Z 25003KT 21/17 A3014 RMK A01 T02070168  RH  082%=      5-min Rain = 0
KRRS 030935Z 25004KT 21/17 A3014 RMK A01 T02060168  RH  083%=      5-min Rain = 0
KRRS 030940Z 25004KT 20/17 A3014 RMK A01 T02040168  RH  084%=      5-min Rain = 0
KRRS 030945Z 25004KT 20/17 A3013 RMK A01 T02040167  RH  084%=      5-min Rain = 0
KRRS 030950Z 25005KT 20/17 A3013 RMK A01 T02030167  RH  084%=      5-min Rain = 0
KRRS 030955Z 26005KT 20/17 A3013 RMK A01 T02030167  RH  084%=      5-min Rain = 0
KRRS 031000Z 26003KT 20/17 A3013 RMK A01 T02040167  RH  084%=      5-min Rain = 0
KRRS 031005Z 25004KT 20/17 A3013 RMK A01 T02040167  RH  084%=      5-min Rain = 0
KRRS 031010Z 25004KT 20/17 A3013 RMK A01 T02030167  RH  084%=      5-min Rain = 0
KRRS 031015Z 25004KT 20/17 A3013 RMK A01 T02020167  RH  085%=      5-min Rain = 0
KRRS 031020Z 24004KT 20/17 A3013 RMK A01 T02000167  RH  085%=      5-min Rain = 0
KRRS 031025Z 25004KT 20/17 A3013 RMK A01 T02000167  RH  085%=      5-min Rain = 0
KRRS 031030Z 25005KT 20/17 A3013 RMK A01 T01990167  RH  086%=      5-min Rain = 0
KRRS 031035Z 24005KT 20/17 A3012 RMK A01 T01990168  RH  086%=      5-min Rain = 0
KRRS 031040Z 25005KT 20/17 A3012 RMK A01 T01980168  RH  087%=      5-min Rain = 0
KRRS 031045Z 25006KT 20/17 A3012 RMK A01 T01970168  RH  088%=      5-min Rain = 0
KRRS 031050Z 25005KT 20/17 A3012 RMK A01 T01980168  RH  087%=      5-min Rain = 0
KRRS 031055Z 26005KT 20/17 A3013 RMK A01 T01990168  RH  087%=      5-min Rain = 0
KRRS 031100Z 27005KT 20/17 A3013 RMK A01 T01980168  RH  087%=      5-min Rain = 0
KRRS 031105Z 27004KT 20/17 A3013 RMK A01 T01970167  RH  087%=      5-min Rain = 0
KRRS 031110Z 28005KT 20/17 A3013 RMK A01 T01960167  RH  087%=      5-min Rain = 0
KRRS 031115Z 28006KT 20/17 A3013 RMK A01 T01960167  RH  088%=      5-min Rain = 0
KRRS 031120Z 29006KT 20/17 A3013 RMK A01 T01970168  RH  088%=      5-min Rain = 0
KRRS 031125Z 28005KT 20/17 A3013 RMK A01 T01980168  RH  087%=      5-min Rain = 0
KRRS 031130Z 28005KT 20/17 A3013 RMK A01 T01970168  RH  087%=      5-min Rain = 0
KRRS 031135Z 29005KT 20/17 A3013 RMK A01 T01970168  RH  087%=      5-min Rain = 0
KRRS 031140Z 05006KT 20/17 A3013 RMK A01 T01960167  RH  087%=      5-min Rain = 0
KRRS 031145Z 05007KT 20/17 A3014 RMK A01 T01960167  RH  087%=      5-min Rain = 0
KRRS 031150Z 07004KT 19/17 A3014 RMK A01 T01940168  RH  089%=      5-min Rain = 0
KRRS 031155Z 06004KT 19/17 A3014 RMK A01 T01920168  RH  090%=      5-min Rain = 0
KRRS 031200Z 05004KT 19/17 A3014 RMK A01 T01890168  RH  092%=      5-min Rain = 0
KRRS 031205Z 03004KT 19/17 A3014 RMK A01 T01870168  RH  093%=      5-min Rain = 0
KRRS 031210Z 02004KT 19/17 A3014 RMK A01 T01850168  RH  094%=      5-min Rain = 0
KRRS 031215Z 03005KT 18/17 A3014 RMK A01 T01840169  RH  095%=      5-min Rain = 0
KRRS 031220Z 05005KT 18/17 A3014 RMK A01 T01840169  RH  095%=      5-min Rain = 0
KRRS 031225Z 05005KT 19/17 A3014 RMK A01 T01850170  RH  096%=      5-min Rain = 0
KRRS 031230Z 05005KT 19/17 A3014 RMK A01 T01880172  RH  095%=      5-min Rain = 0
KRRS 031235Z 06004KT 19/17 A3014 RMK A01 T01920173  RH  094%=      5-min Rain = 0
KRRS 031240Z 05003KT 20/17 A3014 RMK A01 T01960174  RH  092%=      5-min Rain = 0
KRRS 031245Z 03002KT 20/18 A3014 RMK A01 T02000175  RH  090%=      5-min Rain = 0
KRRS 031250Z 04002KT 20/18 A3014 RMK A01 T02040176  RH  089%=      5-min Rain = 0
KRRS 031255Z 04002KT 21/18 A3014 RMK A01 T02080176  RH  086%=      5-min Rain = 0
KRRS 031300Z 00002KT 21/18 A3014 RMK A01 T02110176  RH  085%=      5-min Rain = 0
KRRS 031305Z 02002KT 21/18 A3014 RMK A01 T02140176  RH  083%=      5-min Rain = 0
KRRS 031310Z 03002KT 22/18 A3014 RMK A01 T02180176  RH  081%=      5-min Rain = 0
KRRS 031315Z 02003KT 22/18 A3014 RMK A01 T02220176  RH  079%=      5-min Rain = 0
KRRS 031320Z 04003KT 22/18 A3014 RMK A01 T02240175  RH  078%=      5-min Rain = 0
KRRS 031325Z 03005KT 23/18 A3014 RMK A01 T02270175  RH  076%=      5-min Rain = 0
KRRS 031330Z 04005KT 23/17 A3014 RMK A01 T02270173  RH  075%=      5-min Rain = 0
KRRS 031335Z 04004KT 23/17 A3014 RMK A01 T02280173  RH  075%=      5-min Rain = 0
KRRS 031340Z 05005KT 23/17 A3014 RMK A01 T02300172  RH  074%=      5-min Rain = 0
KRRS 031345Z 04006KT 23/17 A3015 RMK A01 T02330172  RH  072%=      5-min Rain = 0
KRRS 031350Z 05009KT 23/17 A3015 RMK A01 T02340173  RH  072%=      5-min Rain = 0
KRRS 031355Z 05009KT 23/18 A3015 RMK A01 T02330176  RH  074%=      5-min Rain = 0
KRRS 031400Z 05009KT 23/18 A3015 RMK A01 T02310177  RH  076%=      5-min Rain = 0
KRRS 031405Z 05008KT 23/18 A3016 RMK A01 T02320179  RH  076%=      5-min Rain = 0
KRRS 031410Z 05008KT 23/18 A3016 RMK A01 T02330181  RH  076%=      5-min Rain = 0
KRRS 031415Z 06008KT 23/18 A3016 RMK A01 T02320183  RH  078%=      5-min Rain = 0
KRRS 031420Z 06009KT 23/18 A3017 RMK A01 T02340183  RH  077%=      5-min Rain = 0
KRRS 031425Z 08009KT 23/18 A3017 RMK A01 T02330183  RH  078%=      5-min Rain = 0
KRRS 031430Z 09008KT 24/18 A3017 RMK A01 T02350183  RH  077%=      5-min Rain = 0
KRRS 031435Z 08008KT 24/18 A3017 RMK A01 T02360183  RH  076%=      5-min Rain = 0
KRRS 031440Z 09009KT 24/18 A3017 RMK A01 T02370182  RH  075%=      5-min Rain = 0
KRRS 031445Z 08008KT 24/18 A3016 RMK A01 T02380182  RH  075%=      5-min Rain = 0
KRRS 031450Z 07008KT 24/18 A3017 RMK A01 T02400182  RH  074%=      5-min Rain = 0
KRRS 031455Z 08007KT 24/18 A3017 RMK A01 T02400182  RH  074%=      5-min Rain = 0
KRRS 031500Z 06007KT 24/18 A3016 RMK A01 T02410182  RH  074%=      5-min Rain = 0
KRRS 031505Z 09007KT 24/18 A3017 RMK A01 T02420184  RH  074%=      5-min Rain = 0
KRRS 031510Z 10008KT 24/18 A3017 RMK A01 T02430183  RH  073%=      5-min Rain = 0
KRRS 031515Z 08008KT 25/18 A3017 RMK A01 T02460183  RH  072%=      5-min Rain = 0
KRRS 031520Z 07006KT 25/18 A3017 RMK A01 T02460181  RH  071%=      5-min Rain = 0
KRRS 031525Z 08006KT 25/18 A3017 RMK A01 T02470181  RH  070%=      5-min Rain = 0
KRRS 031530Z 08005G10KT 25/18 A3017 RMK A01 T02480180  RH  070%=      5-min Rain = 0
KRRS 031535Z 09006KT 25/18 A3016 RMK A01 T02490180  RH  069%=      5-min Rain = 0
KRRS 031540Z 09005KT 25/18 A3016 RMK A01 T02520179  RH  068%=      5-min Rain = 0
KRRS 031545Z 09007KT 25/18 A3016 RMK A01 T02530179  RH  067%=      5-min Rain = 0
KRRS 031550Z 06006KT 25/18 A3017 RMK A01 T02540178  RH  066%=      5-min Rain = 0
KRRS 031555Z 08007KT 26/18 A3017 RMK A01 T02550178  RH  066%=      5-min Rain = 0
KRRS 031600Z 07008KT 26/18 A3017 RMK A01 T02550177  RH  065%=      5-min Rain = 0
KRRS 031605Z 09004G9KT 26/18 A3017 RMK A01 T02550176  RH  065%=      5-min Rain = 0
KRRS 031610Z 06008KT 26/18 A3017 RMK A01 T02570176  RH  064%=      5-min Rain = 0
KRRS 031615Z 08007KT 26/18 A3017 RMK A01 T02580177  RH  064%=      5-min Rain = 0
KRRS 031620Z 09007KT 26/18 A3017 RMK A01 T02600177  RH  063%=      5-min Rain = 0
KRRS 031625Z 10006KT 26/18 A3017 RMK A01 T02590176  RH  063%=      5-min Rain = 0
KRRS 031630Z 10005G10KT 26/18 A3017 RMK A01 T02610177  RH  063%=      5-min Rain = 0
KRRS 031635Z 08008KT 26/18 A3017 RMK A01 T02640179  RH  063%=      5-min Rain = 0
KRRS 031640Z 10006KT 26/18 A3017 RMK A01 T02620178  RH  063%=      5-min Rain = 0
KRRS 031645Z 10007KT 27/18 A3017 RMK A01 T02650179  RH  062%=      5-min Rain = 0
KRRS 031650Z 10005KT 27/18 A3017 RMK A01 T02680178  RH  061%=      5-min Rain = 0
KRRS 031655Z 13007KT 27/18 A3017 RMK A01 T02710178  RH  060%=      5-min Rain = 0
KRRS 031700Z 11005G11KT 27/18 A3017 RMK A01 T02720179  RH  060%=      5-min Rain = 0
KRRS 031705Z 14005KT 27/18 A3017 RMK A01 T02710177  RH  060%=      5-min Rain = 0
KRRS 031710Z 10005KT 28/18 A3017 RMK A01 T02770180  RH  059%=      5-min Rain = 0
KRRS 031715Z 12005KT 28/18 A3017 RMK A01 T02760178  RH  058%=      5-min Rain = 0
KRRS 031720Z 10007G12KT 28/18 A3017 RMK A01 T02750177  RH  058%=      5-min Rain = 0
KRRS 031725Z 11006G12KT 28/18 A3016 RMK A01 T02760177  RH  058%=      5-min Rain = 0
KRRS 031730Z 08005KT 28/18 A3017 RMK A01 T02770176  RH  057%=      5-min Rain = 0
KRRS 031735Z 11004KT 28/18 A3017 RMK A01 T02780176  RH  057%=      5-min Rain = 0
KRRS 031740Z 08003KT 28/18 A3016 RMK A01 T02790175  RH  056%=      5-min Rain = 0
KRRS 031745Z 04003G9KT 28/18 A3016 RMK A01 T02800175  RH  056%=      5-min Rain = 0
KRRS 031750Z 08003KT 28/17 A3016 RMK A01 T02800173  RH  055%=      5-min Rain = 0
KRRS 031755Z 10005KT 28/17 A3016 RMK A01 T02820173  RH  055%=      5-min Rain = 0
KRRS 031800Z 16006KT 28/18 A3015 RMK A01 T02830176  RH  055%=      5-min Rain = 0
KRRS 031805Z 13006KT 29/18 A3015 RMK A01 T02870175  RH  054%=      5-min Rain = 0
KRRS 031810Z 11004KT 29/17 A3015 RMK A01 T02870173  RH  053%=      5-min Rain = 0
KRRS 031815Z 13005KT 29/17 A3015 RMK A01 T02890173  RH  052%=      5-min Rain = 0
KRRS 031820Z 13004KT 29/17 A3015 RMK A01 T02850174  RH  054%=      5-min Rain = 0
KRRS 031825Z 09006KT 29/17 A3015 RMK A01 T02880174  RH  053%=      5-min Rain = 0
KRRS 031830Z 08008G13KT 29/18 A3015 RMK A01 T02890175  RH  053%=      5-min Rain = 0
KRRS 031835Z 10007KT 29/17 A3014 RMK A01 T02900174  RH  052%=      5-min Rain = 0
KRRS 031840Z 09005KT 29/17 A3014 RMK A01 T02940174  RH  051%=      5-min Rain = 0
KRRS 031845Z 10004KT 29/17 A3014 RMK A01 T02910171  RH  051%=      5-min Rain = 0
KRRS 031850Z 08005KT 29/17 A3014 RMK A01 T02850171  RH  052%=      5-min Rain = 0
KRRS 031855Z 11003KT 28/17 A3014 RMK A01 T02830172  RH  053%=      5-min Rain = 0
KRRS 031900Z 15005G11KT 29/17 A3014 RMK A01 T02900173  RH  052%=      5-min Rain = 0
KRRS 031905Z 22004G11KT 29/17 A3014 RMK A01 T02930171  RH  050%=      5-min Rain = 0
KRRS 031910Z 11004G9KT 30/17 A3014 RMK A01 T02950173  RH  050%=      5-min Rain = 0
KRRS 031915Z 11006G11KT 30/17 A3014 RMK A01 T02970171  RH  049%=      5-min Rain = 0
KRRS 031920Z 15006KT 29/17 A3014 RMK A01 T02930171  RH  050%=      5-min Rain = 0
KRRS 031925Z 12005G10KT 30/17 A3013 RMK A01 T03000171  RH  048%=      5-min Rain = 0
KRRS 031930Z 10006KT 30/17 A3013 RMK A01 T02990171  RH  048%=      5-min Rain = 0
KRRS 031935Z 07005KT 30/17 A3013 RMK A01 T03030172  RH  048%=      5-min Rain = 0
KRRS 031940Z 10008KT 31/17 A3012 RMK A01 T03050170  RH  047%=      5-min Rain = 0
KRRS 031945Z 08007G13KT 30/17 A3012 RMK A01 T02990169  RH  048%=      5-min Rain = 0
KRRS 031950Z 08006KT 30/17 A3012 RMK A01 T03020168  RH  047%=      5-min Rain = 0
KRRS 031955Z 11006KT 31/17 A3012 RMK A01 T03080166  RH  045%=      5-min Rain = 0
KRRS 032000Z 09005KT 31/17 A3011 RMK A01 T03060166  RH  045%=      5-min Rain = 0
KRRS 032005Z 11008KT 31/17 A3011 RMK A01 T03090166  RH  044%=      5-min Rain = 0
KRRS 032010Z 10006KT 31/17 A3011 RMK A01 T03070166  RH  045%=      5-min Rain = 0
KRRS 032015Z 10002G10KT 31/17 A301 RMK A01 T03080166  RH  045%=      5-min Rain = 0
KRRS 032020Z 09008KT 31/17 A301 RMK A01 T03120167  RH  044%=      5-min Rain = 0
KRRS 032025Z 10010KT 31/17 A301 RMK A01 T03140166  RH  043%=      5-min Rain = 0
KRRS 032030Z 10008KT 31/17 A301 RMK A01 T03130165  RH  043%=      5-min Rain = 0
KRRS 032035Z 09007KT 32/16 A301 RMK A01 T03150163  RH  042%=      5-min Rain = 0
KRRS 032040Z 08006G12KT 31/16 A3009 RMK A01 T03120162  RH  042%=      5-min Rain = 0
KRRS 032045Z 11008KT 31/16 A3009 RMK A01 T03090162  RH  043%=      5-min Rain = 0
KRRS 032050Z 10010KT 31/16 A3009 RMK A01 T03050164  RH  045%=      5-min Rain = 0
KRRS 032055Z 13008KT 31/16 A3009 RMK A01 T03080163  RH  044%=      5-min Rain = 0
KRRS 032100Z 11006KT 31/16 A3009 RMK A01 T03130163  RH  042%=      5-min Rain = 0
KRRS 032105Z 12003KT 31/16 A3008 RMK A01 T03140162  RH  042%=      5-min Rain = 0
KRRS 032110Z 09007G14KT 32/16 A3008 RMK A01 T03170161  RH  041%=      5-min Rain = 0
KRRS 032115Z 11009G16KT 32/16 A3008 RMK A01 T03210162  RH  040%=      5-min Rain = 0
KRRS 032120Z 09007G12KT 32/16 A3008 RMK A01 T03190161  RH  041%=      5-min Rain = 0
KRRS 032125Z 08005KT 32/16 A3008 RMK A01 T03150160  RH  041%=      5-min Rain = 0
KRRS 032130Z 07005G10KT 32/16 A3007 RMK A01 T03170160  RH  041%=      5-min Rain = 0
KRRS 032135Z 18006KT 32/16 A3007 RMK A01 T03200159  RH  040%=      5-min Rain = 0
KRRS 032140Z 12006G13KT 32/16 A3007 RMK A01 T03220158  RH  039%=      5-min Rain = 0
KRRS 032145Z 12007G12KT 32/16 A3007 RMK A01 T03180157  RH  040%=      5-min Rain = 0
KRRS 032150Z 18005KT 32/15 A3006 RMK A01 T03210154  RH  038%=      5-min Rain = 0
KRRS 032155Z 11006KT 32/16 A3006 RMK A01 T03220157  RH  039%=      5-min Rain = 0
KRRS 032200Z 11010KT 32/16 A3006 RMK A01 T03160159  RH  041%=      5-min Rain = 0
KRRS 032205Z 13008G14KT 31/16 A3006 RMK A01 T03140157  RH  041%=      5-min Rain = 0
KRRS 032210Z 09006KT 31/16 A3006 RMK A01 T03100157  RH  042%=      5-min Rain = 0
KRRS 032215Z 10003KT 31/16 A3005 RMK A01 T03100158  RH  042%=      5-min Rain = 0
KRRS 032220Z 13007KT 32/16 A3005 RMK A01 T03170159  RH  040%=      5-min Rain = 0
KRRS 032225Z 10007KT 31/16 A3005 RMK A01 T03110157  RH  041%=      5-min Rain = 0
KRRS 032230Z 09006KT 31/16 A3005 RMK A01 T03130158  RH  041%=      5-min Rain = 0
KRRS 032235Z 13007KT 32/16 A3005 RMK A01 T03220159  RH  039%=      5-min Rain = 0
KRRS 032240Z 15006KT 33/16 A3004 RMK A01 T03270156  RH  038%=      5-min Rain = 0
KRRS 032245Z 11009KT 32/16 A3004 RMK A01 T03220159  RH  039%=      5-min Rain = 0
KRRS 032250Z 09008KT 32/16 A3004 RMK A01 T03180159  RH  040%=      5-min Rain = 0
KRRS 032255Z 10007KT 32/16 A3004 RMK A01 T03180157  RH  040%=      5-min Rain = 0
KRRS 032300Z 11009G16KT 32/16 A3004 RMK A01 T03170157  RH  040%=      5-min Rain = 0
KRRS 032305Z 13009G14KT 32/16 A3004 RMK A01 T03220156  RH  039%=      5-min Rain = 0
KRRS 032310Z 11012KT 32/16 A3003 RMK A01 T03220157  RH  039%=      5-min Rain = 0
KRRS 032315Z 10008KT 32/16 A3003 RMK A01 T03180155  RH  039%=      5-min Rain = 0
KRRS 032320Z 11008KT 32/16 A3003 RMK A01 T03170155  RH  040%=      5-min Rain = 0
KRRS 032325Z 11008KT 31/15 A3003 RMK A01 T03140154  RH  040%=      5-min Rain = 0
KRRS 032330Z 10008KT 32/16 A3003 RMK A01 T03160156  RH  040%=      5-min Rain = 0
KRRS 032335Z 11008KT 32/16 A3003 RMK A01 T03200155  RH  039%=      5-min Rain = 0
KRRS 032340Z 11008G13KT 31/15 A3003 RMK A01 T03130152  RH  040%=      5-min Rain = 0
KRRS 032345Z 10005KT 31/15 A3003 RMK A01 T03090152  RH  040%=      5-min Rain = 0
KRRS 032350Z 12007G13KT 31/15 A3003 RMK A01 T03100153  RH  041%=      5-min Rain = 0
KRRS 032355Z 13010KT 31/16 A3003 RMK A01 T03130155  RH  040%=      5-min Rain = 0
KRRS 040000Z 13009KT 32/16 A3003 RMK A01 T03150155  RH  040%=      5-min Rain = 0
KRRS 040005Z 13010KT 31/16 A3003 RMK A01 T03140155  RH  040%=      5-min Rain = 0
KRRS 040010Z 13011KT 32/15 A3003 RMK A01 T03150154  RH  039%=      5-min Rain = 0
KRRS 040015Z 12009KT 31/15 A3003 RMK A01 T03140154  RH  040%=      5-min Rain = 0
KRRS 040020Z 12008KT 31/15 A3003 RMK A01 T03130154  RH  040%=      5-min Rain = 0
KRRS 040025Z 12007KT 31/16 A3003 RMK A01 T03110155  RH  041%=      5-min Rain = 0
KRRS 040030Z 15009KT 31/16 A3003 RMK A01 T03120159  RH  042%=      5-min Rain = 0
KRRS 040035Z 15010KT 31/16 A3003 RMK A01 T03110161  RH  042%=      5-min Rain = 0
KRRS 040040Z 16009KT 31/16 A3003 RMK A01 T03090160  RH  043%=      5-min Rain = 0
KRRS 040045Z 15009KT 31/16 A3003 RMK A01 T03070159  RH  043%=      5-min Rain = 0
KRRS 040050Z 14008KT 31/16 A3003 RMK A01 T03050158  RH  043%=      5-min Rain = 0
KRRS 040055Z 14007KT 30/16 A3003 RMK A01 T03040157  RH  043%=      5-min Rain = 0
KRRS 040100Z 15006KT 31/16 A3003 RMK A01 T03050159  RH  043%=      5-min Rain = 0
KRRS 040105Z 16007KT 30/16 A3003 RMK A01 T03040159  RH  044%=      5-min Rain = 0
KRRS 040110Z 16007KT 30/16 A3003 RMK A01 T03020160  RH  045%=      5-min Rain = 0
KRRS 040115Z 16007KT 30/16 A3004 RMK A01 T02990162  RH  046%=      5-min Rain = 0
KRRS 040120Z 16006KT 30/16 A3004 RMK A01 T02970163  RH  046%=      5-min Rain = 0
KRRS 040125Z 16005KT 30/16 A3004 RMK A01 T02960163  RH  047%=      5-min Rain = 0
KRRS 040130Z 15005KT 29/16 A3004 RMK A01 T02940164  RH  048%=      5-min Rain = 0
KRRS 040135Z 15005KT 29/16 A3004 RMK A01 T02920164  RH  048%=      5-min Rain = 0
KRRS 040140Z 15006KT 29/16 A3004 RMK A01 T02910164  RH  048%=      5-min Rain = 0
KRRS 040145Z 15005KT 29/16 A3004 RMK A01 T02890164  RH  049%=      5-min Rain = 0
KRRS 040150Z 14005KT 29/16 A3004 RMK A01 T02870164  RH  050%=      5-min Rain = 0
KRRS 040155Z 14006KT 29/17 A3004 RMK A01 T02850165  RH  051%=      5-min Rain = 0
KRRS 040200Z 14006KT 28/17 A3004 RMK A01 T02840165  RH  051%=      5-min Rain = 0
KRRS 040205Z 14006KT 28/17 A3004 RMK A01 T02840165  RH  051%=      5-min Rain = 0
KRRS 040210Z 13006KT 28/17 A3005 RMK A01 T02840165  RH  051%=      5-min Rain = 0
KRRS 040215Z 14006KT 28/16 A3005 RMK A01 T02840164  RH  051%=      5-min Rain = 0
KRRS 040220Z 14006KT 28/16 A3005 RMK A01 T02830164  RH  051%=      5-min Rain = 0
KRRS 040225Z 13006KT 28/16 A3006 RMK A01 T02820164  RH  051%=      5-min Rain = 0
KRRS 040230Z 13006KT 28/16 A3006 RMK A01 T02800163  RH  052%=      5-min Rain = 0
KRRS 040235Z 13006KT 28/16 A3006 RMK A01 T02780163  RH  052%=      5-min Rain = 0
KRRS 040240Z 13006KT 28/16 A3006 RMK A01 T02760163  RH  053%=      5-min Rain = 0
KRRS 040245Z 13006KT 28/16 A3007 RMK A01 T02750163  RH  053%=      5-min Rain = 0
KRRS 040250Z 13007KT 27/16 A3007 RMK A01 T02740163  RH  053%=      5-min Rain = 0
KRRS 040255Z 13008KT 27/16 A3008 RMK A01 T02730163  RH  054%=      5-min Rain = 0
KRRS 040300Z 14006KT 27/16 A3008 RMK A01 T02720163  RH  054%=      5-min Rain = 0
KRRS 040305Z 15004KT 27/16 A3008 RMK A01 T02690163  RH  055%=      5-min Rain = 0
KRRS 040310Z 15005KT 27/16 A3009 RMK A01 T02670163  RH  056%=      5-min Rain = 0
KRRS 040315Z 15005KT 27/16 A3009 RMK A01 T02650163  RH  056%=      5-min Rain = 0
KRRS 040320Z 15004KT 26/16 A3009 RMK A01 T02640163  RH  057%=      5-min Rain = 0
KRRS 040325Z 15005KT 26/16 A3009 RMK A01 T02630164  RH  057%=      5-min Rain = 0
KRRS 040330Z 15005KT 26/16 A3009 RMK A01 T02630164  RH  057%=      5-min Rain = 0
KRRS 040335Z 15006KT 26/17 A3009 RMK A01 T02630165  RH  057%=      5-min Rain = 0
KRRS 040340Z 15005KT 26/17 A3009 RMK A01 T02620165  RH  058%=      5-min Rain = 0
KRRS 040345Z 15006KT 26/17 A3009 RMK A01 T02600166  RH  059%=      5-min Rain = 0
KRRS 040350Z 15005KT 26/17 A3009 RMK A01 T02590166  RH  060%=      5-min Rain = 0
KRRS 040355Z 15006KT 26/17 A3009 RMK A01 T02580167  RH  060%=      5-min Rain = 0
KRRS 040400Z 16006KT 26/17 A3009 RMK A01 T02560167  RH  061%=      5-min Rain = 0
KRRS 040405Z 16006KT 26/17 A3009 RMK A01 T02560166  RH  060%=      5-min Rain = 0
KRRS 040410Z 16006KT 26/17 A3009 RMK A01 T02560165  RH  060%=      5-min Rain = 0
KRRS 040415Z 16006KT 25/17 A3009 RMK A01 T02540166  RH  061%=      5-min Rain = 0
KRRS 040420Z 17005KT 25/17 A3009 RMK A01 T02530165  RH  061%=      5-min Rain = 0
KRRS 040425Z 18005KT 25/17 A3009 RMK A01 T02510165  RH  062%=      5-min Rain = 0
KRRS 040430Z 17005KT 25/17 A3009 RMK A01 T02490165  RH  062%=      5-min Rain = 0
KRRS 040435Z 17005KT 25/17 A3009 RMK A01 T02490165  RH  062%=      5-min Rain = 0
KRRS 040440Z 16005KT 25/17 A3009 RMK A01 T02490165  RH  062%=      5-min Rain = 0
KRRS 040445Z 16004KT 25/17 A3009 RMK A01 T02480165  RH  063%=      5-min Rain = 0
KRRS 040450Z 13004KT 25/16 A3009 RMK A01 T02470164  RH  063%=      5-min Rain = 0
KRRS 040455Z 07007KT 24/16 A3009 RMK A01 T02440164  RH  064%=      5-min Rain = 0

Page generated in 0.0092 seconds.